Flight Track Log - Related Links

Times and Time Zones

All times are in EST time to prevent confusion due to time zone crossing. See the JZA8813 flight status page for this flight to view local times or setup timezone preferences in your user account.

Time Position Orientation Groundspeed Altitude Reporting Facility
EST Latitude Longitude Course Direction KTS MPH feet Rate Location/Type
Sat 05:51:44 PM 46.1500 -60.0167 246° West 110 127 500  Level Moncton Center
Sat 05:52:44 PM 46.1167 -60.0500 215° Southwest 120 138 2,000 1,400 Climbing Moncton Center
Sat 05:53:44 PM 46.1000 -60.1000 244° Southwest 140 161 3,300 1,300 Climbing Moncton Center
Sat 05:54:44 PM 46.0833 -60.1667 250° West 160 184 4,600 1,250 Climbing Moncton Center
Sat 05:55:44 PM 46.0500 -60.2167 226° Southwest 170 196 5,800 1,350 Climbing Moncton Center
Sat 05:56:00 PM 46.0134 -60.4711 246° West  Level Estimated
Sat 05:56:44 PM 46.0333 -60.3000 254° West 180 207 7,300  Level Moncton Center
Sat 05:57:44 PM 46.0000 -60.3667 234° Southwest 190 219 8,500 1,200 Climbing Moncton Center
Sat 05:58:44 PM 45.9833 -60.4167 244° Southwest 190 219 9,700 1,300 Climbing Moncton Center
Sat 05:59:44 PM 45.9667 -60.5000 254° West 190 219 11,100 1,300 Climbing Moncton Center
Sat 06:00:44 PM 45.9333 -60.5667 234° Southwest 190 219 12,300 1,300 Climbing Moncton Center
Sat 06:01:44 PM 45.9167 -60.6500 254° West 190 219 13,700 1,250 Climbing Moncton Center
Sat 06:02:44 PM 45.8833 -60.7167 234° Southwest 200 230 14,800 1,100 Climbing Moncton Center
Sat 06:03:44 PM 45.8667 -60.7667 244° Southwest 190 219 15,900 600 Climbing Moncton Center
Sat 06:04:44 PM 45.8333 -60.8500 240° Southwest 200 230 16,000 50 Climbing Moncton Center
Sat 06:05:44 PM 45.8000 -60.9167 234° Southwest 220 253 16,000  Level Moncton Center
Sat 06:06:44 PM 45.7667 -61.0167 244° Southwest 230 265 16,000  Level Moncton Center
Sat 06:07:44 PM 45.7500 -61.0833 250° West 240 276 16,000 -100 Level Moncton Center
Sat 06:08:44 PM 45.7167 -61.1833 245° Southwest 240 276 15,800 -100 Descending Moncton Center
Sat 06:09:44 PM 45.7000 -61.2667 254° West 240 276 15,800  Level Moncton Center
Sat 06:10:44 PM 45.6667 -61.3500 240° Southwest 230 265 15,800  Level Moncton Center
Sat 06:11:44 PM 45.6333 -61.4333 240° Southwest 230 265 15,800 100 Level Moncton Center
Sat 06:12:44 PM 45.6000 -61.5000 234° Southwest 230 265 16,000 100 Climbing Moncton Center
Sat 06:13:44 PM 45.5667 -61.6000 245° Southwest 230 265 16,000  Level Moncton Center
Sat 06:14:44 PM 45.5333 -61.6667 234° Southwest 230 265 16,000  Level Moncton Center
Sat 06:15:44 PM 45.5333 -61.7500 270° West 220 253 16,000  Level Moncton Center
Sat 06:16:44 PM 45.4833 -61.8500 235° Southwest 230 265 16,000  Level Moncton Center
Sat 06:17:44 PM 45.4667 -61.9167 250° West 230 265 16,000  Level Moncton Center
Sat 06:18:44 PM 45.4333 -61.9833 235° Southwest 230 265 16,000  Level Moncton Center
Sat 06:19:44 PM 45.4000 -62.0833 245° Southwest 230 265 16,000  Level Moncton Center
Sat 06:20:44 PM 45.3667 -62.1667 240° Southwest 230 265 16,000  Level Moncton Center
Sat 06:21:44 PM 45.3333 -62.2333 235° Southwest 230 265 16,000  Level Moncton Center
Sat 06:22:44 PM 45.3000 -62.3333 245° Southwest 230 265 16,000  Level Moncton Center
Sat 06:23:44 PM 45.2667 -62.4000 235° Southwest 230 265 16,000 -100 Level Moncton Center
Sat 06:24:44 PM 45.2333 -62.4667 235° Southwest 230 265 15,800 -800 Descending Moncton Center
Sat 06:25:44 PM 45.2167 -62.5667 257° West 250 288 14,400 -1,400 Descending Moncton Center
Sat 06:26:44 PM 45.1833 -62.6667 245° Southwest 270 311 13,000 -1,400 Descending Moncton Center
Sat 06:27:44 PM 45.1333 -62.7333 223° Southwest 260 299 11,600 -1,350 Descending Moncton Center
Sat 06:28:44 PM 45.1000 -62.8333 245° Southwest 260 299 10,300 -1,200 Descending Moncton Center
Sat 06:29:44 PM 45.0500 -62.9000 223° Southwest 260 299 9,200 -1,250 Descending Moncton Center
Sat 06:30:44 PM 45.0167 -63.0000 245° Southwest 260 299 7,800 -1,350 Descending Moncton Center
Sat 06:31:44 PM 44.9833 -63.0667 235° Southwest 250 288 6,500 -1,350 Descending Moncton Center
Sat 06:32:44 PM 44.9333 -63.1500 230° Southwest 220 253 5,100 -1,450 Descending Moncton Center
Sat 06:33:44 PM 44.9000 -63.2167 235° Southwest 210 242 3,600 -1,350 Descending Moncton Center
Sat 06:34:44 PM 44.8667 -63.2833 235° Southwest 200 230 2,400 -950 Descending Moncton Center
Sat 06:35:44 PM 44.8500 -63.3667 254° West 180 207 1,700 -446 Descending Moncton Center
Sat 06:36:45 PM 44.8500 -63.4000 270° West 120 138 1,500 -250 Descending Moncton Center
Sat 06:37:44 PM 44.8500 -63.4500 270° West 110 127 1,200 -500 Descending Moncton Center
Sat 06:38:45 PM 44.8667 -63.4833 305° West 100 115 500 -347 Descending Moncton Center
Sat 06:39:45 PM 44.8833 -63.5167 305° West 90 104 500  Level Moncton Center

Login

Don't have an account? Register now (free) for customized features, flight alerts, and more!